sensor_id;sensor_type;location;lat;lon;timestamp;temperature;humidity
64939;DHT22;51453;47.738;7.420;2023-07-16T00:02:03;18.20;99.90
64939;DHT22;51453;47.738;7.420;2023-07-16T00:04:30;18.30;99.90
64939;DHT22;51453;47.738;7.420;2023-07-16T00:06:56;18.30;99.90
64939;DHT22;51453;47.738;7.420;2023-07-16T00:09:22;18.40;99.90
64939;DHT22;51453;47.738;7.420;2023-07-16T00:11:48;18.30;99.90
64939;DHT22;51453;47.738;7.420;2023-07-16T00:14:14;18.20;99.90
64939;DHT22;51453;47.738;7.420;2023-07-16T00:16:40;18.10;99.90
64939;DHT22;51453;47.738;7.420;2023-07-16T00:19:05;18.00;99.90
64939;DHT22;51453;47.738;7.420;2023-07-16T00:21:31;17.90;99.90
64939;DHT22;51453;47.738;7.420;2023-07-16T00:23:56;18.00;99.90
64939;DHT22;51453;47.738;7.420;2023-07-16T00:26:22;18.00;99.90
64939;DHT22;51453;47.738;7.420;2023-07-16T00:28:48;18.10;99.90
64939;DHT22;51453;47.738;7.420;2023-07-16T00:31:14;18.10;99.90
64939;DHT22;51453;47.738;7.420;2023-07-16T00:33:39;18.10;99.90
64939;DHT22;51453;47.738;7.420;2023-07-16T00:36:05;18.00;99.90
64939;DHT22;51453;47.738;7.420;2023-07-16T00:38:30;18.00;99.90
64939;DHT22;51453;47.738;7.420;2023-07-16T00:40:56;18.00;99.90
64939;DHT22;51453;47.738;7.420;2023-07-16T00:43:22;18.00;99.90
64939;DHT22;51453;47.738;7.420;2023-07-16T00:45:48;18.00;99.90
64939;DHT22;51453;47.738;7.420;2023-07-16T00:48:15;18.00;99.90
64939;DHT22;51453;47.738;7.420;2023-07-16T00:50:41;17.90;99.90
64939;DHT22;51453;47.738;7.420;2023-07-16T00:53:08;17.90;99.90
64939;DHT22;51453;47.738;7.420;2023-07-16T00:55:35;17.90;99.90
64939;DHT22;51453;47.738;7.420;2023-07-16T00:58:05;17.70;99.90
64939;DHT22;51453;47.738;7.420;2023-07-16T01:00:33;17.60;99.90
64939;DHT22;51453;47.738;7.420;2023-07-16T01:03:04;17.60;99.90
64939;DHT22;51453;47.738;7.420;2023-07-16T01:05:45;17.40;99.90
64939;DHT22;51453;47.738;7.420;2023-07-16T01:08:14;17.40;99.90
64939;DHT22;51453;47.738;7.420;2023-07-16T01:10:42;17.40;99.90
64939;DHT22;51453;47.738;7.420;2023-07-16T01:13:09;17.30;99.90
64939;DHT22;51453;47.738;7.420;2023-07-16T01:15:34;17.30;99.90
64939;DHT22;51453;47.738;7.420;2023-07-16T01:18:00;17.20;99.90
64939;DHT22;51453;47.738;7.420;2023-07-16T01:20:26;17.10;99.90
64939;DHT22;51453;47.738;7.420;2023-07-16T01:23:26;17.10;99.90
64939;DHT22;51453;47.738;7.420;2023-07-16T01:31:33;17.20;99.90
64939;DHT22;51453;47.738;7.420;2023-07-16T01:33:59;17.30;99.90
64939;DHT22;51453;47.738;7.420;2023-07-16T01:36:26;17.40;99.90
64939;DHT22;51453;47.738;7.420;2023-07-16T01:38:53;17.40;99.90
64939;DHT22;51453;47.738;7.420;2023-07-16T01:41:19;17.40;99.90
64939;DHT22;51453;47.738;7.420;2023-07-16T01:43:45;17.50;99.90
64939;DHT22;51453;47.738;7.420;2023-07-16T01:46:11;17.40;99.90
64939;DHT22;51453;47.738;7.420;2023-07-16T01:48:37;17.50;99.90
64939;DHT22;51453;47.738;7.420;2023-07-16T01:51:04;17.50;99.90
64939;DHT22;51453;47.738;7.420;2023-07-16T01:53:30;17.50;99.90
64939;DHT22;51453;47.738;7.420;2023-07-16T01:55:57;17.60;99.90
64939;DHT22;51453;47.738;7.420;2023-07-16T01:58:23;17.60;99.90
64939;DHT22;51453;47.738;7.420;2023-07-16T02:00:50;17.60;99.90
64939;DHT22;51453;47.738;7.420;2023-07-16T02:03:16;17.60;99.90
64939;DHT22;51453;47.738;7.420;2023-07-16T02:05:41;17.60;99.90
64939;DHT22;51453;47.738;7.420;2023-07-16T02:08:07;17.60;99.90
64939;DHT22;51453;47.738;7.420;2023-07-16T02:10:33;17.60;99.90
64939;DHT22;51453;47.738;7.420;2023-07-16T02:12:58;17.70;99.90
64939;DHT22;51453;47.738;7.420;2023-07-16T02:15:24;17.60;99.90
64939;DHT22;51453;47.738;7.420;2023-07-16T02:17:51;17.60;99.90
64939;DHT22;51453;47.738;7.420;2023-07-16T02:20:16;17.70;99.90
64939;DHT22;51453;47.738;7.420;2023-07-16T02:22:42;17.70;99.90
64939;DHT22;51453;47.738;7.420;2023-07-16T02:25:07;17.70;99.90
64939;DHT22;51453;47.738;7.420;2023-07-16T02:27:33;17.70;99.90
64939;DHT22;51453;47.738;7.420;2023-07-16T02:29:59;17.80;99.90
64939;DHT22;51453;47.738;7.420;2023-07-16T02:32:24;17.80;99.90
64939;DHT22;51453;47.738;7.420;2023-07-16T02:34:50;17.80;99.90
64939;DHT22;51453;47.738;7.420;2023-07-16T02:37:15;17.70;99.90
64939;DHT22;51453;47.738;7.420;2023-07-16T02:39:44;17.70;99.90
64939;DHT22;51453;47.738;7.420;2023-07-16T02:42:10;17.70;99.90
64939;DHT22;51453;47.738;7.420;2023-07-16T02:44:36;17.70;99.90
64939;DHT22;51453;47.738;7.420;2023-07-16T02:47:08;17.70;99.90
64939;DHT22;51453;47.738;7.420;2023-07-16T02:49:34;17.70;99.90
64939;DHT22;51453;47.738;7.420;2023-07-16T02:52:00;17.70;99.90
64939;DHT22;51453;47.738;7.420;2023-07-16T02:54:25;17.70;99.90
64939;DHT22;51453;47.738;7.420;2023-07-16T02:56:51;17.60;99.90
64939;DHT22;51453;47.738;7.420;2023-07-16T02:59:16;17.60;99.90
64939;DHT22;51453;47.738;7.420;2023-07-16T03:01:42;17.60;99.90
64939;DHT22;51453;47.738;7.420;2023-07-16T03:04:08;17.60;99.90
64939;DHT22;51453;47.738;7.420;2023-07-16T03:06:33;17.60;99.90
64939;DHT22;51453;47.738;7.420;2023-07-16T03:08:59;17.60;99.90
64939;DHT22;51453;47.738;7.420;2023-07-16T03:11:25;17.60;99.90
64939;DHT22;51453;47.738;7.420;2023-07-16T03:13:50;17.60;99.90
64939;DHT22;51453;47.738;7.420;2023-07-16T03:16:16;17.60;99.90
64939;DHT22;51453;47.738;7.420;2023-07-16T03:18:42;17.60;99.90
64939;DHT22;51453;47.738;7.420;2023-07-16T03:21:07;17.60;99.90
64939;DHT22;51453;47.738;7.420;2023-07-16T03:23:33;17.60;99.90
64939;DHT22;51453;47.738;7.420;2023-07-16T03:25:58;17.60;99.90
64939;DHT22;51453;47.738;7.420;2023-07-16T03:28:24;17.60;99.90
64939;DHT22;51453;47.738;7.420;2023-07-16T03:30:50;17.70;99.90
64939;DHT22;51453;47.738;7.420;2023-07-16T03:33:16;17.60;99.90
64939;DHT22;51453;47.738;7.420;2023-07-16T03:35:43;17.60;99.90
64939;DHT22;51453;47.738;7.420;2023-07-16T03:38:10;17.60;99.90
64939;DHT22;51453;47.738;7.420;2023-07-16T03:40:36;17.60;99.90
64939;DHT22;51453;47.738;7.420;2023-07-16T03:43:01;17.60;99.90
64939;DHT22;51453;47.738;7.420;2023-07-16T03:45:27;17.60;99.90
64939;DHT22;51453;47.738;7.420;2023-07-16T03:47:52;17.60;99.90
64939;DHT22;51453;47.738;7.420;2023-07-16T03:50:18;17.60;99.90
64939;DHT22;51453;47.738;7.420;2023-07-16T03:52:44;17.70;99.90
64939;DHT22;51453;47.738;7.420;2023-07-16T03:55:10;17.60;99.90
64939;DHT22;51453;47.738;7.420;2023-07-16T03:57:36;17.60;99.90
64939;DHT22;51453;47.738;7.420;2023-07-16T04:00:05;17.60;99.90
64939;DHT22;51453;47.738;7.420;2023-07-16T04:02:35;17.50;99.90
64939;DHT22;51453;47.738;7.420;2023-07-16T04:05:01;17.50;99.90
64939;DHT22;51453;47.738;7.420;2023-07-16T04:07:26;17.40;99.90
64939;DHT22;51453;47.738;7.420;2023-07-16T04:09:52;17.40;99.90
64939;DHT22;51453;47.738;7.420;2023-07-16T04:12:18;17.30;99.90
64939;DHT22;51453;47.738;7.420;2023-07-16T04:14:43;17.30;99.90
64939;DHT22;51453;47.738;7.420;2023-07-16T04:17:09;17.30;99.90
64939;DHT22;51453;47.738;7.420;2023-07-16T04:19:35;17.30;99.90
64939;DHT22;51453;47.738;7.420;2023-07-16T04:22:01;17.20;99.90
64939;DHT22;51453;47.738;7.420;2023-07-16T04:24:26;17.10;99.90
64939;DHT22;51453;47.738;7.420;2023-07-16T04:26:53;17.10;99.90
64939;DHT22;51453;47.738;7.420;2023-07-16T04:29:19;17.00;99.90
64939;DHT22;51453;47.738;7.420;2023-07-16T04:31:44;17.00;99.90
64939;DHT22;51453;47.738;7.420;2023-07-16T04:34:10;17.00;99.90
64939;DHT22;51453;47.738;7.420;2023-07-16T04:36:36;17.00;99.90
64939;DHT22;51453;47.738;7.420;2023-07-16T04:39:02;17.00;99.90
64939;DHT22;51453;47.738;7.420;2023-07-16T04:41:27;17.00;99.90
64939;DHT22;51453;47.738;7.420;2023-07-16T04:43:53;17.00;99.90
64939;DHT22;51453;47.738;7.420;2023-07-16T04:46:19;17.00;99.90
64939;DHT22;51453;47.738;7.420;2023-07-16T04:48:44;17.10;99.90
64939;DHT22;51453;47.738;7.420;2023-07-16T04:51:10;17.10;99.90
64939;DHT22;51453;47.738;7.420;2023-07-16T04:53:36;17.10;99.90
64939;DHT22;51453;47.738;7.420;2023-07-16T04:56:01;17.10;99.90
64939;DHT22;51453;47.738;7.420;2023-07-16T04:58:27;17.10;99.90
64939;DHT22;51453;47.738;7.420;2023-07-16T05:00:52;17.10;99.90
64939;DHT22;51453;47.738;7.420;2023-07-16T05:03:18;17.10;99.90
64939;DHT22;51453;47.738;7.420;2023-07-16T05:05:44;17.00;99.90
64939;DHT22;51453;47.738;7.420;2023-07-16T05:08:09;17.00;99.90
64939;DHT22;51453;47.738;7.420;2023-07-16T05:10:35;17.10;99.90
64939;DHT22;51453;47.738;7.420;2023-07-16T05:13:01;17.10;99.90
64939;DHT22;51453;47.738;7.420;2023-07-16T05:15:29;17.10;99.90
64939;DHT22;51453;47.738;7.420;2023-07-16T05:17:55;17.20;99.90
64939;DHT22;51453;47.738;7.420;2023-07-16T05:20:23;17.00;99.90
64939;DHT22;51453;47.738;7.420;2023-07-16T05:22:48;17.00;99.90
64939;DHT22;51453;47.738;7.420;2023-07-16T05:25:14;16.90;99.90
64939;DHT22;51453;47.738;7.420;2023-07-16T05:27:40;17.00;99.90
64939;DHT22;51453;47.738;7.420;2023-07-16T05:30:06;17.00;99.90
64939;DHT22;51453;47.738;7.420;2023-07-16T05:32:32;17.20;99.90
64939;DHT22;51453;47.738;7.420;2023-07-16T05:34:57;17.60;99.90
64939;DHT22;51453;47.738;7.420;2023-07-16T05:37:23;18.00;99.90
64939;DHT22;51453;47.738;7.420;2023-07-16T05:39:48;18.20;99.90
64939;DHT22;51453;47.738;7.420;2023-07-16T05:42:14;18.40;99.90
64939;DHT22;51453;47.738;7.420;2023-07-16T05:44:40;18.50;99.90
64939;DHT22;51453;47.738;7.420;2023-07-16T05:47:05;18.60;99.90
64939;DHT22;51453;47.738;7.420;2023-07-16T05:49:31;18.80;99.90
64939;DHT22;51453;47.738;7.420;2023-07-16T05:51:57;19.00;99.90
64939;DHT22;51453;47.738;7.420;2023-07-16T05:54:23;19.30;99.90
64939;DHT22;51453;47.738;7.420;2023-07-16T05:56:48;19.50;99.90
64939;DHT22;51453;47.738;7.420;2023-07-16T05:59:14;19.70;99.90
64939;DHT22;51453;47.738;7.420;2023-07-16T06:01:39;19.70;99.90
64939;DHT22;51453;47.738;7.420;2023-07-16T06:04:05;19.70;99.90
64939;DHT22;51453;47.738;7.420;2023-07-16T06:06:31;19.80;99.90
64939;DHT22;51453;47.738;7.420;2023-07-16T06:08:56;19.90;99.90
64939;DHT22;51453;47.738;7.420;2023-07-16T06:11:22;20.00;99.90
64939;DHT22;51453;47.738;7.420;2023-07-16T06:13:47;20.10;99.90
64939;DHT22;51453;47.738;7.420;2023-07-16T06:16:13;20.20;99.90
64939;DHT22;51453;47.738;7.420;2023-07-16T06:18:39;20.30;99.90
64939;DHT22;51453;47.738;7.420;2023-07-16T06:21:04;20.30;99.90
64939;DHT22;51453;47.738;7.420;2023-07-16T06:23:30;20.10;99.90
64939;DHT22;51453;47.738;7.420;2023-07-16T06:25:56;19.90;99.90
64939;DHT22;51453;47.738;7.420;2023-07-16T06:28:22;19.70;99.90
64939;DHT22;51453;47.738;7.420;2023-07-16T06:30:48;19.50;99.90
64939;DHT22;51453;47.738;7.420;2023-07-16T06:33:14;19.40;99.90
64939;DHT22;51453;47.738;7.420;2023-07-16T06:35:40;19.30;99.90
64939;DHT22;51453;47.738;7.420;2023-07-16T06:38:05;19.20;99.90
64939;DHT22;51453;47.738;7.420;2023-07-16T06:40:31;19.30;99.90
64939;DHT22;51453;47.738;7.420;2023-07-16T06:42:57;19.50;99.90
64939;DHT22;51453;47.738;7.420;2023-07-16T06:45:22;19.70;99.90
64939;DHT22;51453;47.738;7.420;2023-07-16T06:47:48;20.00;99.90
64939;DHT22;51453;47.738;7.420;2023-07-16T06:50:14;20.10;99.90
64939;DHT22;51453;47.738;7.420;2023-07-16T06:52:39;20.00;99.90
64939;DHT22;51453;47.738;7.420;2023-07-16T06:55:05;20.00;99.90
64939;DHT22;51453;47.738;7.420;2023-07-16T06:57:31;19.90;99.90
64939;DHT22;51453;47.738;7.420;2023-07-16T06:59:57;19.80;99.90
64939;DHT22;51453;47.738;7.420;2023-07-16T07:02:22;19.80;99.90
64939;DHT22;51453;47.738;7.420;2023-07-16T07:04:48;19.70;99.90
64939;DHT22;51453;47.738;7.420;2023-07-16T07:07:13;19.70;99.90
64939;DHT22;51453;47.738;7.420;2023-07-16T07:09:39;19.80;99.90
64939;DHT22;51453;47.738;7.420;2023-07-16T07:12:05;19.80;99.90
64939;DHT22;51453;47.738;7.420;2023-07-16T07:14:32;19.80;99.90
64939;DHT22;51453;47.738;7.420;2023-07-16T07:16:58;19.90;99.90
64939;DHT22;51453;47.738;7.420;2023-07-16T07:19:23;19.90;99.90
64939;DHT22;51453;47.738;7.420;2023-07-16T07:21:49;19.90;99.90
64939;DHT22;51453;47.738;7.420;2023-07-16T07:24:15;19.90;99.90
64939;DHT22;51453;47.738;7.420;2023-07-16T07:26:40;19.90;99.90
64939;DHT22;51453;47.738;7.420;2023-07-16T07:29:06;19.90;99.90
64939;DHT22;51453;47.738;7.420;2023-07-16T07:31:32;19.90;99.90
64939;DHT22;51453;47.738;7.420;2023-07-16T07:33:57;19.80;99.90
64939;DHT22;51453;47.738;7.420;2023-07-16T07:36:24;20.00;99.90
64939;DHT22;51453;47.738;7.420;2023-07-16T07:38:49;20.10;99.90
64939;DHT22;51453;47.738;7.420;2023-07-16T07:41:15;20.40;99.90
64939;DHT22;51453;47.738;7.420;2023-07-16T07:43:40;20.70;99.90
64939;DHT22;51453;47.738;7.420;2023-07-16T07:46:06;20.90;99.90
64939;DHT22;51453;47.738;7.420;2023-07-16T07:48:32;21.00;99.90
64939;DHT22;51453;47.738;7.420;2023-07-16T07:50:57;20.90;99.90
64939;DHT22;51453;47.738;7.420;2023-07-16T07:53:23;20.80;99.90
64939;DHT22;51453;47.738;7.420;2023-07-16T07:55:49;20.80;99.90
64939;DHT22;51453;47.738;7.420;2023-07-16T07:58:14;20.90;99.90
64939;DHT22;51453;47.738;7.420;2023-07-16T08:00:40;20.90;99.90
64939;DHT22;51453;47.738;7.420;2023-07-16T08:03:06;21.10;99.90
64939;DHT22;51453;47.738;7.420;2023-07-16T08:05:31;21.40;99.90
64939;DHT22;51453;47.738;7.420;2023-07-16T08:07:58;21.70;99.90
64939;DHT22;51453;47.738;7.420;2023-07-16T08:10:24;22.00;99.90
64939;DHT22;51453;47.738;7.420;2023-07-16T08:12:50;22.20;99.90
64939;DHT22;51453;47.738;7.420;2023-07-16T08:15:17;22.20;99.90
64939;DHT22;51453;47.738;7.420;2023-07-16T08:17:43;22.10;99.90
64939;DHT22;51453;47.738;7.420;2023-07-16T08:20:09;22.10;99.90
64939;DHT22;51453;47.738;7.420;2023-07-16T08:22:35;22.00;99.90
64939;DHT22;51453;47.738;7.420;2023-07-16T08:25:01;22.10;99.90
64939;DHT22;51453;47.738;7.420;2023-07-16T08:27:29;22.10;99.90
64939;DHT22;51453;47.738;7.420;2023-07-16T08:29:54;22.20;99.90
64939;DHT22;51453;47.738;7.420;2023-07-16T08:32:20;22.20;99.90
64939;DHT22;51453;47.738;7.420;2023-07-16T08:34:46;22.30;99.90
64939;DHT22;51453;47.738;7.420;2023-07-16T08:37:13;22.40;99.90
64939;DHT22;51453;47.738;7.420;2023-07-16T08:39:38;22.50;99.90
64939;DHT22;51453;47.738;7.420;2023-07-16T08:42:04;22.40;99.90
64939;DHT22;51453;47.738;7.420;2023-07-16T08:44:30;22.70;99.90
64939;DHT22;51453;47.738;7.420;2023-07-16T08:46:56;22.80;99.90
64939;DHT22;51453;47.738;7.420;2023-07-16T08:49:23;22.90;99.90
64939;DHT22;51453;47.738;7.420;2023-07-16T08:51:49;23.00;99.90
64939;DHT22;51453;47.738;7.420;2023-07-16T08:54:15;22.90;99.90
64939;DHT22;51453;47.738;7.420;2023-07-16T08:56:43;22.90;99.90
64939;DHT22;51453;47.738;7.420;2023-07-16T08:59:10;22.90;99.90
64939;DHT22;51453;47.738;7.420;2023-07-16T09:01:37;22.90;99.90
64939;DHT22;51453;47.738;7.420;2023-07-16T09:04:03;23.10;99.90
64939;DHT22;51453;47.738;7.420;2023-07-16T09:06:28;23.10;99.90
64939;DHT22;51453;47.738;7.420;2023-07-16T09:08:54;23.10;99.90
64939;DHT22;51453;47.738;7.420;2023-07-16T09:11:21;22.90;99.90
64939;DHT22;51453;47.738;7.420;2023-07-16T09:13:48;22.60;99.90
64939;DHT22;51453;47.738;7.420;2023-07-16T09:16:14;22.70;99.90
64939;DHT22;51453;47.738;7.420;2023-07-16T09:18:43;22.70;99.90
64939;DHT22;51453;47.738;7.420;2023-07-16T09:21:08;22.70;99.90
64939;DHT22;51453;47.738;7.420;2023-07-16T09:23:34;22.60;99.90
64939;DHT22;51453;47.738;7.420;2023-07-16T09:26:00;22.60;99.90
64939;DHT22;51453;47.738;7.420;2023-07-16T09:28:26;22.80;99.90
64939;DHT22;51453;47.738;7.420;2023-07-16T09:30:52;22.90;99.90
64939;DHT22;51453;47.738;7.420;2023-07-16T09:33:19;23.00;99.90
64939;DHT22;51453;47.738;7.420;2023-07-16T09:35:48;23.10;99.90
64939;DHT22;51453;47.738;7.420;2023-07-16T09:38:14;23.20;99.90
64939;DHT22;51453;47.738;7.420;2023-07-16T09:40:40;23.20;99.90
64939;DHT22;51453;47.738;7.420;2023-07-16T09:43:10;23.10;99.90
64939;DHT22;51453;47.738;7.420;2023-07-16T09:45:36;23.00;99.90
64939;DHT22;51453;47.738;7.420;2023-07-16T09:48:03;23.00;99.90
64939;DHT22;51453;47.738;7.420;2023-07-16T09:50:32;22.90;99.90
64939;DHT22;51453;47.738;7.420;2023-07-16T09:52:58;22.80;99.90
64939;DHT22;51453;47.738;7.420;2023-07-16T09:55:25;22.60;99.90
64939;DHT22;51453;47.738;7.420;2023-07-16T09:57:54;22.50;99.90
64939;DHT22;51453;47.738;7.420;2023-07-16T10:00:21;22.50;99.90
64939;DHT22;51453;47.738;7.420;2023-07-16T10:02:48;22.50;99.90
64939;DHT22;51453;47.738;7.420;2023-07-16T10:05:15;22.40;99.90
64939;DHT22;51453;47.738;7.420;2023-07-16T10:07:42;22.30;99.90
64939;DHT22;51453;47.738;7.420;2023-07-16T10:10:09;22.50;99.90
64939;DHT22;51453;47.738;7.420;2023-07-16T10:12:36;22.60;99.90
64939;DHT22;51453;47.738;7.420;2023-07-16T10:15:04;22.90;99.90
64939;DHT22;51453;47.738;7.420;2023-07-16T10:17:31;23.00;99.90
64939;DHT22;51453;47.738;7.420;2023-07-16T10:20:08;23.10;99.90
64939;DHT22;51453;47.738;7.420;2023-07-16T10:22:41;23.10;99.90
64939;DHT22;51453;47.738;7.420;2023-07-16T10:27:49;23.10;99.90
64939;DHT22;51453;47.738;7.420;2023-07-16T10:30:15;23.00;99.90
64939;DHT22;51453;47.738;7.420;2023-07-16T10:32:41;23.00;99.90
64939;DHT22;51453;47.738;7.420;2023-07-16T10:35:08;22.80;99.90
64939;DHT22;51453;47.738;7.420;2023-07-16T10:37:37;22.80;99.90
64939;DHT22;51453;47.738;7.420;2023-07-16T10:40:04;22.90;99.90
64939;DHT22;51453;47.738;7.420;2023-07-16T10:42:32;22.90;99.90
64939;DHT22;51453;47.738;7.420;2023-07-16T10:45:03;23.00;99.90
64939;DHT22;51453;47.738;7.420;2023-07-16T10:47:35;23.00;99.90
64939;DHT22;51453;47.738;7.420;2023-07-16T10:50:04;23.20;99.90
64939;DHT22;51453;47.738;7.420;2023-07-16T10:52:30;23.30;99.90
64939;DHT22;51453;47.738;7.420;2023-07-16T10:54:56;23.50;99.90
64939;DHT22;51453;47.738;7.420;2023-07-16T10:57:24;23.60;99.90
64939;DHT22;51453;47.738;7.420;2023-07-16T10:59:56;23.60;99.90
64939;DHT22;51453;47.738;7.420;2023-07-16T11:02:23;23.40;99.90
64939;DHT22;51453;47.738;7.420;2023-07-16T11:04:49;23.40;99.90
64939;DHT22;51453;47.738;7.420;2023-07-16T11:07:16;23.60;99.90
64939;DHT22;51453;47.738;7.420;2023-07-16T11:09:42;23.70;99.90
64939;DHT22;51453;47.738;7.420;2023-07-16T11:12:09;23.80;99.90
64939;DHT22;51453;47.738;7.420;2023-07-16T11:14:35;23.80;99.90
64939;DHT22;51453;47.738;7.420;2023-07-16T11:17:08;23.80;99.90
64939;DHT22;51453;47.738;7.420;2023-07-16T11:19:35;23.80;99.90
64939;DHT22;51453;47.738;7.420;2023-07-16T11:22:02;23.80;99.90
64939;DHT22;51453;47.738;7.420;2023-07-16T11:24:28;23.80;99.90
64939;DHT22;51453;47.738;7.420;2023-07-16T11:27:01;23.80;99.90
64939;DHT22;51453;47.738;7.420;2023-07-16T11:29:34;23.80;99.90
64939;DHT22;51453;47.738;7.420;2023-07-16T11:32:00;23.90;99.90
64939;DHT22;51453;47.738;7.420;2023-07-16T11:34:26;23.90;99.90
64939;DHT22;51453;47.738;7.420;2023-07-16T11:36:51;24.00;99.90
64939;DHT22;51453;47.738;7.420;2023-07-16T11:39:17;24.00;99.90
64939;DHT22;51453;47.738;7.420;2023-07-16T11:41:53;24.10;99.90
64939;DHT22;51453;47.738;7.420;2023-07-16T11:44:19;24.10;99.90
64939;DHT22;51453;47.738;7.420;2023-07-16T11:46:46;24.10;99.90
64939;DHT22;51453;47.738;7.420;2023-07-16T11:49:12;24.20;99.90
64939;DHT22;51453;47.738;7.420;2023-07-16T11:51:38;24.30;99.90
64939;DHT22;51453;47.738;7.420;2023-07-16T11:54:03;24.30;99.90
64939;DHT22;51453;47.738;7.420;2023-07-16T11:56:29;24.30;99.90
64939;DHT22;51453;47.738;7.420;2023-07-16T11:58:55;24.40;99.90
64939;DHT22;51453;47.738;7.420;2023-07-16T12:01:20;24.40;99.90
64939;DHT22;51453;47.738;7.420;2023-07-16T12:03:46;24.60;99.90
64939;DHT22;51453;47.738;7.420;2023-07-16T12:06:11;24.60;99.90
64939;DHT22;51453;47.738;7.420;2023-07-16T12:08:37;24.50;99.90
64939;DHT22;51453;47.738;7.420;2023-07-16T12:11:02;24.60;99.90
64939;DHT22;51453;47.738;7.420;2023-07-16T12:13:28;24.70;99.90
64939;DHT22;51453;47.738;7.420;2023-07-16T12:15:54;24.70;99.90
64939;DHT22;51453;47.738;7.420;2023-07-16T12:18:19;24.70;99.90
64939;DHT22;51453;47.738;7.420;2023-07-16T12:20:45;24.60;99.90
64939;DHT22;51453;47.738;7.420;2023-07-16T12:23:10;24.70;99.90
64939;DHT22;51453;47.738;7.420;2023-07-16T12:25:36;24.80;99.90
64939;DHT22;51453;47.738;7.420;2023-07-16T12:28:01;24.70;99.90
64939;DHT22;51453;47.738;7.420;2023-07-16T12:30:28;24.70;99.90
64939;DHT22;51453;47.738;7.420;2023-07-16T12:32:53;24.60;99.90
64939;DHT22;51453;47.738;7.420;2023-07-16T12:35:19;24.40;99.90
64939;DHT22;51453;47.738;7.420;2023-07-16T12:37:44;24.10;99.90
64939;DHT22;51453;47.738;7.420;2023-07-16T12:40:10;24.00;99.90
64939;DHT22;51453;47.738;7.420;2023-07-16T12:42:37;24.00;99.90
64939;DHT22;51453;47.738;7.420;2023-07-16T12:45:02;24.10;99.90
64939;DHT22;51453;47.738;7.420;2023-07-16T12:47:28;23.90;99.90
64939;DHT22;51453;47.738;7.420;2023-07-16T12:49:53;23.90;99.90
64939;DHT22;51453;47.738;7.420;2023-07-16T12:52:19;23.90;99.90
64939;DHT22;51453;47.738;7.420;2023-07-16T12:54:45;23.90;99.90
64939;DHT22;51453;47.738;7.420;2023-07-16T12:57:11;24.00;99.90
64939;DHT22;51453;47.738;7.420;2023-07-16T12:59:36;24.10;99.90
64939;DHT22;51453;47.738;7.420;2023-07-16T13:02:03;24.10;99.90
64939;DHT22;51453;47.738;7.420;2023-07-16T13:04:29;24.20;99.90
64939;DHT22;51453;47.738;7.420;2023-07-16T13:06:54;24.40;99.90
64939;DHT22;51453;47.738;7.420;2023-07-16T13:09:20;24.60;99.90
64939;DHT22;51453;47.738;7.420;2023-07-16T13:11:45;24.80;99.90
64939;DHT22;51453;47.738;7.420;2023-07-16T13:14:11;25.10;99.90
64939;DHT22;51453;47.738;7.420;2023-07-16T13:16:36;25.30;99.90
64939;DHT22;51453;47.738;7.420;2023-07-16T13:19:02;25.50;99.90
64939;DHT22;51453;47.738;7.420;2023-07-16T13:21:28;25.60;99.90
64939;DHT22;51453;47.738;7.420;2023-07-16T13:23:53;25.60;99.90
64939;DHT22;51453;47.738;7.420;2023-07-16T13:26:19;25.70;99.90
64939;DHT22;51453;47.738;7.420;2023-07-16T13:28:44;25.60;99.90
64939;DHT22;51453;47.738;7.420;2023-07-16T13:31:10;25.60;99.90
64939;DHT22;51453;47.738;7.420;2023-07-16T13:33:35;25.70;99.90
64939;DHT22;51453;47.738;7.420;2023-07-16T13:36:01;25.60;99.90
64939;DHT22;51453;47.738;7.420;2023-07-16T13:38:30;25.60;99.90
64939;DHT22;51453;47.738;7.420;2023-07-16T13:40:56;25.60;99.90
64939;DHT22;51453;47.738;7.420;2023-07-16T13:43:21;25.60;99.90
64939;DHT22;51453;47.738;7.420;2023-07-16T13:45:47;25.70;99.90
64939;DHT22;51453;47.738;7.420;2023-07-16T13:48:13;25.80;99.90
64939;DHT22;51453;47.738;7.420;2023-07-16T13:50:38;25.80;99.90
64939;DHT22;51453;47.738;7.420;2023-07-16T13:53:04;25.80;99.90
64939;DHT22;51453;47.738;7.420;2023-07-16T13:55:29;25.90;99.90
64939;DHT22;51453;47.738;7.420;2023-07-16T13:57:55;25.90;99.90
64939;DHT22;51453;47.738;7.420;2023-07-16T14:00:21;26.00;99.90
64939;DHT22;51453;47.738;7.420;2023-07-16T14:02:47;26.10;99.90
64939;DHT22;51453;47.738;7.420;2023-07-16T14:05:13;26.20;99.90
64939;DHT22;51453;47.738;7.420;2023-07-16T14:07:39;26.10;99.90
64939;DHT22;51453;47.738;7.420;2023-07-16T14:10:04;25.90;99.90
64939;DHT22;51453;47.738;7.420;2023-07-16T14:12:30;25.90;99.90
64939;DHT22;51453;47.738;7.420;2023-07-16T14:14:56;25.80;99.90
64939;DHT22;51453;47.738;7.420;2023-07-16T14:17:21;25.70;99.90
64939;DHT22;51453;47.738;7.420;2023-07-16T14:19:48;25.70;99.90
64939;DHT22;51453;47.738;7.420;2023-07-16T14:22:14;25.70;99.90
64939;DHT22;51453;47.738;7.420;2023-07-16T14:24:41;25.70;99.90
64939;DHT22;51453;47.738;7.420;2023-07-16T14:27:07;25.80;99.90
64939;DHT22;51453;47.738;7.420;2023-07-16T14:29:36;25.90;99.90
64939;DHT22;51453;47.738;7.420;2023-07-16T14:32:02;25.90;99.90
64939;DHT22;51453;47.738;7.420;2023-07-16T14:34:28;26.00;99.90
64939;DHT22;51453;47.738;7.420;2023-07-16T14:36:54;26.00;99.90
64939;DHT22;51453;47.738;7.420;2023-07-16T14:39:20;26.20;99.90
64939;DHT22;51453;47.738;7.420;2023-07-16T14:41:46;26.20;99.90
64939;DHT22;51453;47.738;7.420;2023-07-16T14:44:12;26.10;99.90
64939;DHT22;51453;47.738;7.420;2023-07-16T14:46:37;26.20;99.90
64939;DHT22;51453;47.738;7.420;2023-07-16T14:49:03;26.40;99.90
64939;DHT22;51453;47.738;7.420;2023-07-16T14:51:29;26.30;99.90
64939;DHT22;51453;47.738;7.420;2023-07-16T14:53:56;26.40;99.90
64939;DHT22;51453;47.738;7.420;2023-07-16T14:56:21;26.50;99.90
64939;DHT22;51453;47.738;7.420;2023-07-16T14:58:47;26.50;99.90
64939;DHT22;51453;47.738;7.420;2023-07-16T15:01:13;26.60;99.90
64939;DHT22;51453;47.738;7.420;2023-07-16T15:03:39;26.70;99.90
64939;DHT22;51453;47.738;7.420;2023-07-16T15:06:08;26.70;99.90
64939;DHT22;51453;47.738;7.420;2023-07-16T15:08:35;26.60;99.90
64939;DHT22;51453;47.738;7.420;2023-07-16T15:11:00;26.50;99.90
64939;DHT22;51453;47.738;7.420;2023-07-16T15:13:26;26.60;99.90
64939;DHT22;51453;47.738;7.420;2023-07-16T15:15:54;26.60;99.90
64939;DHT22;51453;47.738;7.420;2023-07-16T15:18:20;26.70;99.90
64939;DHT22;51453;47.738;7.420;2023-07-16T15:20:47;26.50;99.90
64939;DHT22;51453;47.738;7.420;2023-07-16T15:23:13;26.40;99.90
64939;DHT22;51453;47.738;7.420;2023-07-16T15:25:42;26.00;99.90
64939;DHT22;51453;47.738;7.420;2023-07-16T15:28:12;25.80;99.90
64939;DHT22;51453;47.738;7.420;2023-07-16T15:30:38;25.50;99.90
64939;DHT22;51453;47.738;7.420;2023-07-16T15:33:03;25.30;99.90